Time;durP1;ratioP1;P1;durP2;ratioP2;P2;SDS_P1;SDS_P2;PMS_P1;PMS_P2;Temp;Humidity;BMP_temperature;BMP_pressure;BME280_temperature;BME280_humidity;BME280_pressure;Samples;Min_cycle;Max_cycle;Signal;HPM_P1;HPM_P2
2021/05/20 00:01:02;;;;;;;1.77;1.15;;;;;;;23.14;32.10;101479.84;5034481;28;20041;-75
2021/05/20 00:03:28;;;;;;;2.15;0.93;;;;;;;23.13;32.17;101484.63;5033910;28;20030;-75
2021/05/20 00:05:53;;;;;;;2.88;1.13;;;;;;;23.13;31.74;101479.06;5034281;28;20106;-75
2021/05/20 00:08:19;;;;;;;2.28;1.20;;;;;;;23.11;32.23;101472.25;5034295;28;20128;-75
2021/05/20 00:10:45;;;;;;;4.53;1.40;;;;;;;23.06;32.30;101465.03;5034177;28;20033;-83
2021/05/20 00:13:10;;;;;;;6.38;1.42;;;;;;;23.03;32.37;101457.41;5032958;28;20029;-78
2021/05/20 00:15:36;;;;;;;2.58;1.48;;;;;;;23.02;32.42;101453.03;5034218;28;20021;-75
2021/05/20 00:18:02;;;;;;;9.80;1.25;;;;;;;22.94;32.49;101454.13;5034126;28;20025;-76
2021/05/20 00:20:28;;;;;;;4.07;1.17;;;;;;;22.93;32.59;101453.34;5034077;28;20026;-85
2021/05/20 00:22:53;;;;;;;2.35;1.17;;;;;;;22.86;32.67;101456.03;5034167;28;20029;-75
2021/05/20 00:25:19;;;;;;;4.82;1.20;;;;;;;22.74;32.96;101452.66;5034684;28;20017;-79
2021/05/20 00:27:44;;;;;;;4.47;1.30;;;;;;;22.90;32.60;101450.53;5034281;28;20057;-75
2021/05/20 00:30:10;;;;;;;3.88;1.10;;;;;;;22.92;32.49;101446.16;5034454;28;20056;-89
2021/05/20 00:32:37;;;;;;;4.57;1.38;;;;;;;22.94;32.32;101441.00;5033562;28;20041;-75
2021/05/20 00:35:03;;;;;;;1.90;1.40;;;;;;;22.89;32.54;101434.97;5033973;28;20026;-75
2021/05/20 00:37:29;;;;;;;2.75;1.20;;;;;;;22.87;32.49;101435.34;5033669;28;20036;-76
2021/05/20 00:39:55;;;;;;;2.30;1.00;;;;;;;22.77;32.60;101435.19;5033869;28;20034;-75
2021/05/20 00:42:21;;;;;;;3.08;1.40;;;;;;;22.70;32.71;101425.56;5033778;28;20025;-75
2021/05/20 00:44:52;;;;;;;2.75;1.58;;;;;;;22.63;33.04;101422.69;5033716;28;20037;-75
2021/05/20 00:47:20;;;;;;;6.95;1.90;;;;;;;22.62;32.90;101425.84;5033875;28;20040;-77
2021/05/20 00:49:45;;;;;;;2.97;1.13;;;;;;;22.69;32.73;101415.59;5033600;28;20049;-75
2021/05/20 00:52:11;;;;;;;1.45;0.90;;;;;;;22.72;32.69;101397.31;5033786;28;20026;-77
2021/05/20 00:54:37;;;;;;;3.13;1.30;;;;;;;22.70;32.98;101400.50;5033956;28;20033;-76
2021/05/20 00:57:04;;;;;;;10.18;1.67;;;;;;;22.55;33.13;101392.34;5033931;28;20088;-75
2021/05/20 00:59:29;;;;;;;2.95;1.40;;;;;;;22.69;32.92;101376.63;5033761;28;20028;-75
2021/05/20 01:01:55;;;;;;;2.72;1.13;;;;;;;22.76;32.81;101363.94;5033393;28;20029;-76
2021/05/20 01:04:21;;;;;;;1.58;1.00;;;;;;;22.62;32.97;101372.94;5033414;28;20056;-76
2021/05/20 01:06:46;;;;;;;14.25;2.15;;;;;;;22.53;33.26;101370.44;5033638;28;20031;-76
2021/05/20 01:09:12;;;;;;;4.82;1.85;;;;;;;22.55;33.20;101356.94;5033456;28;20049;-75
2021/05/20 01:11:40;;;;;;;3.25;1.67;;;;;;;22.51;33.21;101360.84;5033396;28;20357;-75
2021/05/20 01:14:10;;;;;;;2.78;1.52;;;;;;;22.47;33.12;101346.09;5033482;28;20540;-75
2021/05/20 01:16:36;;;;;;;;;;;;;;;22.33;33.65;101346.72;5034159;28;20022;-75
2021/05/20 01:19:01;;;;;;;3.15;1.30;;;;;;;22.44;33.18;101342.06;5033146;28;19919;-75
2021/05/20 01:21:27;;;;;;;2.28;1.33;;;;;;;22.45;33.21;101349.28;5033074;28;20033;-87
2021/05/20 01:23:52;;;;;;;3.00;1.30;;;;;;;22.40;33.36;101341.25;5033102;28;20030;-80
2021/05/20 01:26:18;;;;;;;8.50;1.90;;;;;;;22.41;33.49;101338.06;5032066;28;20087;-87
2021/05/20 01:28:44;;;;;;;4.10;1.50;;;;;;;22.30;33.65;101334.38;5033174;28;20053;-76
2021/05/20 01:31:10;;;;;;;3.22;1.52;;;;;;;22.41;33.68;101317.78;5032987;28;20060;-75
2021/05/20 01:33:35;;;;;;;2.45;1.75;;;;;;;22.72;33.20;101313.75;5033134;28;20061;-75
2021/05/20 01:36:01;;;;;;;3.35;1.50;;;;;;;22.74;33.11;101303.03;5033276;28;20396;-80
2021/05/20 01:41:06;;;;;;;3.50;1.80;;;;;;;22.90;33.07;101295.28;5033323;28;20159;-87
2021/05/20 01:43:33;;;;;;;4.00;2.00;;;;;;;22.77;33.41;101291.13;5032850;28;20048;-75
2021/05/20 01:46:00;;;;;;;3.45;1.83;;;;;;;22.72;33.53;101291.47;5032941;28;20365;-75
2021/05/20 01:48:36;;;;;;;4.47;1.63;;;;;;;22.85;33.29;101284.47;5032889;28;20060;-75
2021/05/20 01:51:08;;;;;;;4.45;2.47;;;;;;;22.83;33.66;101281.25;5032836;28;20030;-75
2021/05/20 01:53:35;;;;;;;4.53;2.10;;;;;;;22.84;33.50;101280.06;5032922;28;20475;-75
2021/05/20 01:56:02;;;;;;;5.40;1.80;;;;;;;22.86;33.72;101268.56;5032905;28;20032;-76
2021/05/20 01:58:27;;;;;;;5.40;2.25;;;;;;;22.94;33.63;101270.22;5033230;28;20361;-75
2021/05/20 02:00:53;;;;;;;3.55;1.70;;;;;;;22.83;33.73;101266.53;5032737;28;20031;-75
2021/05/20 02:03:20;;;;;;;5.47;1.88;;;;;;;22.79;34.00;101265.69;5032507;28;20476;-85
2021/05/20 02:05:46;;;;;;;5.80;3.13;;;;;;;22.78;33.93;101261.28;5033123;28;20349;-76
2021/05/20 02:08:12;;;;;;;5.60;2.17;;;;;;;22.83;33.85;101255.38;5032800;28;20095;-76
2021/05/20 02:10:38;;;;;;;8.60;2.10;;;;;;;22.80;33.98;101253.34;5032796;28;20033;-87
2021/05/20 02:13:04;;;;;;;6.65;2.25;;;;;;;22.75;33.98;101254.50;5032674;28;20074;-75
2021/05/20 02:15:29;;;;;;;8.10;2.58;;;;;;;22.43;34.68;101243.81;5032796;28;20525;-75
2021/05/20 02:17:55;;;;;;;7.38;2.80;;;;;;;22.52;34.60;101246.31;5034858;28;20025;-75
2021/05/20 02:20:21;;;;;;;5.72;2.50;;;;;;;22.35;34.93;101239.38;5036675;28;20083;-75
2021/05/20 02:22:48;;;;;;;7.15;2.97;;;;;;;22.57;34.41;101229.25;5036792;28;20021;-75
2021/05/20 02:25:14;;;;;;;6.03;2.88;;;;;;;22.41;34.66;101221.16;5036491;28;20029;-76
2021/05/20 02:27:40;;;;;;;5.57;2.42;;;;;;;22.10;35.22;101221.59;5036516;28;20484;-75
2021/05/20 02:30:07;;;;;;;8.65;2.70;;;;;;;21.92;35.54;101217.78;5036177;28;20030;-75
2021/05/20 02:32:32;;;;;;;6.45;2.40;;;;;;;21.67;35.95;101218.25;5036238;28;20049;-75
2021/05/20 02:34:58;;;;;;;10.18;2.67;;;;;;;21.67;36.05;101200.75;5036482;28;20086;-75
2021/05/20 02:37:24;;;;;;;9.60;2.90;;;;;;;21.84;35.74;101192.66;5036190;28;20053;-75
2021/05/20 02:39:49;;;;;;;8.55;2.88;;;;;;;21.89;35.52;101191.50;5036305;28;20025;-75
2021/05/20 02:42:15;;;;;;;7.35;3.15;;;;;;;22.04;35.11;101184.13;5035948;28;20150;-75
2021/05/20 02:44:40;;;;;;;10.52;3.22;;;;;;;22.19;34.91;101176.75;5036238;28;20536;-75
2021/05/20 02:47:06;;;;;;;10.88;4.57;;;;;;;21.98;35.22;101169.75;5036025;28;20029;-76
2021/05/20 02:49:32;;;;;;;9.32;2.38;;;;;;;21.88;35.49;101148.97;5036009;28;20060;-75
2021/05/20 02:51:58;;;;;;;9.50;4.00;;;;;;;21.81;35.74;101148.09;5035900;28;20487;-80
2021/05/20 02:54:23;;;;;;;6.68;3.13;;;;;;;21.79;35.77;101156.03;5035874;28;20033;-75
2021/05/20 02:56:49;;;;;;;7.32;3.03;;;;;;;21.78;35.92;101137.75;5035555;28;20037;-76
2021/05/20 02:59:14;;;;;;;10.07;3.78;;;;;;;21.97;35.58;101131.19;5034108;28;20037;-75
2021/05/20 03:01:44;;;;;;;10.38;4.13;;;;;;;21.86;35.88;101131.06;5035579;28;20033;-75
2021/05/20 03:04:11;;;;;;;11.50;3.45;;;;;;;22.18;35.41;101113.94;5036025;28;20044;-75
2021/05/20 03:06:37;;;;;;;12.82;4.28;;;;;;;22.49;34.74;101115.41;5035491;28;20033;-75
2021/05/20 03:09:05;;;;;;;12.50;3.83;;;;;;;22.33;35.06;101110.09;5035711;28;20030;-75
2021/05/20 03:11:32;;;;;;;8.35;3.80;;;;;;;22.01;35.82;101099.44;5036083;28;20032;-88
2021/05/20 03:13:57;;;;;;;9.27;3.30;;;;;;;21.86;36.11;101100.47;5036705;28;20022;-75
2021/05/20 03:16:23;;;;;;;10.73;3.65;;;;;;;21.78;36.45;101107.16;5034911;28;20036;-75
2021/05/20 03:18:49;;;;;;;13.40;4.05;;;;;;;21.86;36.30;101097.69;5036406;28;20029;-76
2021/05/20 03:21:14;;;;;;;8.95;3.70;;;;;;;21.86;36.41;101095.72;5034914;28;20037;-76
2021/05/20 03:23:40;;;;;;;10.68;3.42;;;;;;;22.01;36.22;101079.16;5035752;28;20036;-75
2021/05/20 03:26:06;;;;;;;8.10;3.10;;;;;;;22.06;35.83;101073.22;5035233;28;20026;-76
2021/05/20 03:28:32;;;;;;;10.07;3.08;;;;;;;22.13;35.96;101067.78;5035434;28;20384;-75
2021/05/20 03:30:57;;;;;;;10.95;3.13;;;;;;;22.46;35.50;101049.38;5035159;28;20033;-75
2021/05/20 03:33:23;;;;;;;14.30;3.58;;;;;;;22.64;34.94;101045.50;5035041;28;20048;-87
2021/05/20 03:35:48;;;;;;;9.25;3.53;;;;;;;22.57;35.17;101047.44;5035521;28;20025;-76
2021/05/20 03:38:14;;;;;;;8.75;3.38;;;;;;;22.13;36.17;101032.38;5035185;28;20033;-84
2021/05/20 03:40:40;;;;;;;13.75;3.92;;;;;;;22.06;36.44;101029.50;5034246;28;20072;-87
2021/05/20 03:43:05;;;;;;;14.27;3.95;;;;;;;22.21;36.34;101015.75;5036311;28;20025;-75
2021/05/20 03:45:31;;;;;;;14.57;4.50;;;;;;;21.92;37.00;101015.50;5034643;28;20499;-75
2021/05/20 03:47:56;;;;;;;12.95;3.78;;;;;;;21.77;37.76;101006.22;5035101;28;20025;-76
2021/05/20 03:50:22;;;;;;;8.15;3.03;;;;;;;22.06;36.98;101010.03;5034851;28;20029;-87
2021/05/20 03:52:48;;;;;;;9.68;3.33;;;;;;;22.32;36.63;100999.94;5034710;28;20087;-75
2021/05/20 03:55:13;;;;;;;9.25;3.30;;;;;;;22.31;36.69;100999.16;5034935;28;20033;-76
2021/05/20 03:57:39;;;;;;;14.80;3.80;;;;;;;22.31;36.75;100987.22;5034947;28;20036;-83
2021/05/20 04:00:05;;;;;;;12.40;3.83;;;;;;;22.32;37.14;100977.69;5034761;28;20144;-81
2021/05/20 04:02:31;;;;;;;13.88;3.90;;;;;;;22.71;36.17;100970.34;5034757;28;20038;-76
2021/05/20 04:04:57;;;;;;;18.85;4.32;;;;;;;22.35;37.05;100954.63;5034592;28;20098;-87
2021/05/20 04:07:22;;;;;;;17.80;4.80;;;;;;;22.18;37.62;100938.59;5035058;28;20028;-79
2021/05/20 04:09:48;;;;;;;18.73;4.35;;;;;;;22.26;37.54;100929.13;5034984;28;20127;-87
2021/05/20 04:12:14;;;;;;;13.13;3.22;;;;;;;22.30;37.58;100927.16;5034497;28;20492;-85
2021/05/20 04:14:39;;;;;;;17.75;3.80;;;;;;;22.52;37.13;100925.28;5034227;28;20068;-75
2021/05/20 04:17:05;;;;;;;14.73;4.07;;;;;;;22.18;37.95;100905.22;5034444;28;20032;-76
2021/05/20 04:19:31;;;;;;;11.88;4.43;;;;;;;22.28;37.75;100898.91;5034571;28;20025;-75
2021/05/20 04:21:57;;;;;;;23.10;6.25;;;;;;;22.41;37.53;100886.25;5034489;28;20040;-76
2021/05/20 04:24:24;;;;;;;17.55;4.80;;;;;;;22.29;38.02;100878.22;5034354;28;20384;-75
2021/05/20 04:26:52;;;;;;;11.77;3.78;;;;;;;22.29;37.90;100865.13;5034545;28;20029;-83
2021/05/20 04:29:18;;;;;;;18.83;3.53;;;;;;;22.43;37.87;100862.41;5034307;28;20030;-76
2021/05/20 04:31:44;;;;;;;12.23;3.53;;;;;;;22.57;37.50;100856.09;5033861;28;20059;-75
2021/05/20 04:34:09;;;;;;;12.20;3.95;;;;;;;22.23;38.23;100829.72;5032806;28;20045;-75
2021/05/20 04:36:35;;;;;;;16.20;3.83;;;;;;;21.93;39.43;100830.72;5033874;28;20068;-76
2021/05/20 04:39:01;;;;;;;13.10;3.00;;;;;;;21.93;39.37;100833.50;5032428;28;20033;-75
2021/05/20 04:41:26;;;;;;;21.08;5.22;;;;;;;22.30;38.60;100830.53;5024858;28;20033;-75
2021/05/20 04:43:52;;;;;;;22.50;4.80;;;;;;;22.36;38.39;100819.81;5023042;28;20026;-75
2021/05/20 04:46:17;;;;;;;15.73;4.20;;;;;;;21.96;39.28;100813.22;5026766;28;20029;-74
2021/05/20 04:48:43;;;;;;;13.95;3.72;;;;;;;22.03;39.24;100801.34;5032378;28;20021;-75
2021/05/20 04:51:09;;;;;;;13.95;3.63;;;;;;;22.27;38.75;100800.69;5032210;28;20061;-74
2021/05/20 04:53:35;;;;;;;15.43;3.97;;;;;;;22.19;38.81;100801.06;5031938;28;20033;-74
2021/05/20 04:56:02;;;;;;;9.90;2.67;;;;;;;21.95;38.90;100785.81;5029645;28;20583;-74
2021/05/20 04:58:27;;;;;;;11.60;2.58;;;;;;;22.30;37.64;100779.66;5032160;28;20475;-74
2021/05/20 05:00:53;;;;;;;9.30;2.95;;;;;;;22.22;37.48;100775.22;5032524;28;20029;-75
2021/05/20 05:03:18;;;;;;;6.80;2.72;;;;;;;21.94;37.91;100768.31;5031921;28;20349;-79
2021/05/20 05:05:44;;;;;;;11.73;3.42;;;;;;;22.14;37.67;100761.31;5031580;28;20026;-76
2021/05/20 05:08:09;;;;;;;8.85;3.03;;;;;;;21.89;38.12;100758.34;5030693;28;20021;-76
2021/05/20 05:10:35;;;;;;;13.70;3.33;;;;;;;21.81;38.26;100756.72;5030793;28;20029;-75
2021/05/20 05:13:01;;;;;;;7.78;2.10;;;;;;;21.50;38.74;100733.09;5032116;28;20018;-75
2021/05/20 05:15:26;;;;;;;7.60;2.20;;;;;;;21.29;38.86;100728.19;5031608;28;20021;-76
2021/05/20 05:17:52;;;;;;;10.00;2.00;;;;;;;21.43;38.33;100721.13;5031803;28;20025;-75
2021/05/20 05:20:19;;;;;;;7.38;1.83;;;;;;;21.42;38.17;100712.00;5030389;28;20021;-85
2021/05/20 05:22:45;;;;;;;9.10;2.83;;;;;;;21.37;38.20;100684.56;5031816;28;20033;-75
2021/05/20 05:25:11;;;;;;;8.75;2.20;;;;;;;21.30;38.44;100687.31;5031760;28;20387;-74
2021/05/20 05:27:36;;;;;;;13.13;2.85;;;;;;;21.41;38.06;100693.75;5031612;28;20053;-75
2021/05/20 05:30:03;;;;;;;8.77;2.17;;;;;;;21.49;37.79;100681.47;5031689;28;20104;-75
2021/05/20 05:32:29;;;;;;;7.28;2.08;;;;;;;21.54;37.75;100677.53;5031375;28;20069;-75
2021/05/20 05:34:54;;;;;;;7.78;3.05;;;;;;;21.39;37.81;100659.97;5031493;28;20111;-75
2021/05/20 05:37:20;;;;;;;13.82;2.80;;;;;;;20.77;39.14;100651.56;5028994;28;20032;-75
2021/05/20 05:39:46;;;;;;;11.00;2.88;;;;;;;20.98;38.63;100640.63;5031654;28;20025;-76
2021/05/20 05:42:11;;;;;;;10.20;2.67;;;;;;;20.71;39.02;100625.34;5031425;28;20065;-75
2021/05/20 05:44:37;;;;;;;12.48;3.13;;;;;;;20.71;39.17;100614.25;5031436;28;20028;-75
2021/05/20 05:47:03;;;;;;;11.30;2.28;;;;;;;20.82;38.91;100592.91;5032001;28;20040;-87
2021/05/20 05:49:30;;;;;;;14.15;3.42;;;;;;;20.90;38.71;100580.66;5031614;28;20093;-77
2021/05/20 05:52:00;;;;;;;10.13;2.72;;;;;;;20.64;39.48;100567.00;5033225;28;20025;-75
2021/05/20 05:54:26;;;;;;;9.85;2.72;;;;;;;20.98;38.71;100568.41;5035827;28;20022;-77
2021/05/20 05:56:51;;;;;;;14.10;4.57;;;;;;;20.81;39.45;100546.09;5035685;28;20022;-88
2021/05/20 05:59:17;;;;;;;10.15;2.70;;;;;;;20.39;40.54;100514.81;5035869;28;20079;-76
2021/05/20 06:01:46;;;;;;;17.25;3.45;;;;;;;20.43;40.67;100509.31;5035633;28;20108;-76
2021/05/20 06:04:14;;;;;;;13.05;4.57;;;;;;;20.66;40.54;100507.13;5036143;28;20104;-75
2021/05/20 06:06:43;;;;;;;14.45;3.05;;;;;;;20.53;40.96;100491.19;5034312;28;20068;-75
2021/05/20 06:09:08;;;;;;;16.30;4.68;;;;;;;20.28;41.59;100488.19;5035458;28;20028;-75
2021/05/20 06:11:34;;;;;;;10.60;3.28;;;;;;;20.18;42.29;100481.41;5036492;28;20022;-88
2021/05/20 06:14:05;;;;;;;13.15;4.13;;;;;;;20.05;42.70;100469.00;5037170;28;20022;-81
2021/05/20 06:16:30;;;;;;;14.43;3.35;;;;;;;20.63;41.34;100490.44;5036106;28;20108;-88
2021/05/20 06:18:56;;;;;;;11.35;3.55;;;;;;;20.39;41.83;100475.97;5036212;28;20125;-75
2021/05/20 06:21:22;;;;;;;14.73;3.08;;;;;;;20.64;41.06;100475.41;5035304;28;20076;-75
2021/05/20 06:23:48;;;;;;;9.63;2.55;;;;;;;20.21;41.66;100475.06;5035120;28;20540;-75
2021/05/20 06:26:14;;;;;;;11.43;3.70;;;;;;;20.46;41.34;100469.72;5035172;28;20100;-87
2021/05/20 06:28:41;;;;;;;16.58;4.00;;;;;;;20.55;41.28;100463.81;5035032;28;20025;-88
2021/05/20 06:31:07;;;;;;;13.02;3.05;;;;;;;20.63;41.06;100465.44;5035019;28;20550;-75
2021/05/20 06:33:32;;;;;;;11.38;2.78;;;;;;;20.20;41.96;100449.31;5034830;28;20104;-78
2021/05/20 06:35:58;;;;;;;21.50;5.75;;;;;;;20.08;42.22;100455.16;5034899;28;20029;-75
2021/05/20 06:38:23;;;;;;;13.93;3.63;;;;;;;20.48;41.13;100453.50;5034835;28;20028;-75
2021/05/20 06:40:49;;;;;;;22.35;3.70;;;;;;;20.69;40.79;100444.47;5034979;28;20018;-80
2021/05/20 06:43:14;;;;;;;14.27;3.88;;;;;;;20.25;41.80;100428.72;5034779;28;20495;-75
2021/05/20 06:45:40;;;;;;;17.13;3.33;;;;;;;19.82;43.06;100410.97;5031658;28;20032;-89
2021/05/20 06:48:06;;;;;;;15.65;3.53;;;;;;;20.15;42.07;100396.94;5032988;28;20112;-91
2021/05/20 06:50:31;;;;;;;12.85;2.83;;;;;;;19.83;42.84;100385.63;5035921;28;20060;-92
2021/05/20 06:52:58;;;;;;;15.35;3.50;;;;;;;20.08;42.22;100408.00;5036231;28;20033;-90
2021/05/20 06:55:23;;;;;;;13.88;3.30;;;;;;;20.09;42.22;100397.69;5033975;28;20076;-84
2021/05/20 07:00:36;;;;;;;13.30;3.20;;;;;;;20.40;41.70;100363.84;5035650;28;20032;-90
2021/05/20 07:03:03;;;;;;;14.43;3.13;;;;;;;20.56;41.27;100362.75;5034220;28;20472;-76
2021/05/20 07:05:29;;;;;;;18.92;4.47;;;;;;;20.59;41.25;100346.09;5035302;28;20048;-76
2021/05/20 07:07:55;;;;;;;12.93;3.90;;;;;;;20.39;41.65;100334.47;5033637;28;20403;-77
2021/05/20 07:10:20;;;;;;;18.77;3.13;;;;;;;20.39;41.59;100328.91;5032122;28;20051;-77
2021/05/20 07:12:46;;;;;;;12.45;2.83;;;;;;;20.37;41.84;100322.97;5034649;28;20460;-76
2021/05/20 07:15:12;;;;;;;13.27;2.78;;;;;;;20.35;41.91;100310.69;5034378;28;20032;-76
2021/05/20 07:17:38;;;;;;;13.13;3.45;;;;;;;20.07;42.65;100301.03;5035002;28;20025;-78
2021/05/20 07:20:05;;;;;;;17.63;3.85;;;;;;;20.44;41.65;100300.84;5035126;28;20040;-75
2021/05/20 07:22:32;;;;;;;15.90;3.20;;;;;;;19.90;43.51;100294.19;5034773;28;20033;-74
2021/05/20 07:25:02;;;;;;;17.35;5.22;;;;;;;19.98;43.33;100286.72;5034976;28;20021;-75
2021/05/20 07:27:27;;;;;;;19.63;5.22;;;;;;;20.15;43.23;100285.22;5034779;28;20030;-76
2021/05/20 07:29:53;;;;;;;9.73;2.97;;;;;;;19.51;44.81;100265.41;5035473;28;20095;-76
2021/05/20 07:32:20;;;;;;;14.50;3.53;;;;;;;20.28;42.87;100269.03;5034677;28;20553;-76
2021/05/20 07:34:46;;;;;;;23.70;4.63;;;;;;;20.03;43.94;100266.16;5034375;28;20048;-75
2021/05/20 07:37:12;;;;;;;22.23;3.80;;;;;;;20.12;43.59;100250.75;5035090;28;20472;-74
2021/05/20 07:39:37;;;;;;;13.38;3.65;;;;;;;19.92;44.09;100241.13;5024357;28;20041;-75
2021/05/20 07:42:04;;;;;;;24.17;7.45;;;;;;;19.82;44.36;100231.56;5021544;28;20529;-76
2021/05/20 07:44:29;;;;;;;25.35;4.90;;;;;;;19.29;45.53;100198.75;5020073;28;20115;-75
2021/05/20 07:46:56;;;;;;;24.52;5.15;;;;;;;19.01;46.88;100207.63;5017533;28;20033;-84
2021/05/20 07:49:24;;;;;;;22.08;4.93;;;;;;;19.16;46.47;100183.63;5017889;28;20112;-76
2021/05/20 07:51:49;;;;;;;23.00;4.45;;;;;;;18.75;47.50;100177.34;5018081;28;20029;-75
2021/05/20 07:54:15;;;;;;;17.73;5.22;;;;;;;19.36;46.06;100154.47;5017288;28;20083;-75
2021/05/20 07:56:43;;;;;;;23.88;4.82;;;;;;;19.54;45.86;100151.00;5018406;28;20108;-75
2021/05/20 07:59:08;;;;;;;25.30;5.47;;;;;;;18.90;47.36;100143.09;5029665;28;20029;-75
2021/05/20 08:01:35;;;;;;;20.88;3.95;;;;;;;18.53;48.07;100134.84;5030585;28;20100;-75
2021/05/20 08:04:08;;;;;;;23.02;4.95;;;;;;;19.11;46.69;100106.44;5022187;28;20021;-74
2021/05/20 08:06:49;;;;;;;30.45;7.05;;;;;;;19.05;47.20;100091.38;5022816;28;20032;-72
2021/05/20 08:09:35;;;;;;;35.47;6.70;;;;;;;19.18;46.66;100069.69;5031218;28;20037;-73
2021/05/20 08:12:01;;;;;;;18.58;4.78;;;;;;;18.78;47.75;100068.66;5033287;28;20040;-72
2021/05/20 08:14:26;;;;;;;29.95;5.72;;;;;;;19.01;47.04;100068.41;5032648;28;20034;-84
2021/05/20 08:16:52;;;;;;;28.92;6.40;;;;;;;19.18;46.61;100062.16;5033445;28;20025;-72
2021/05/20 08:19:17;;;;;;;27.88;5.50;;;;;;;19.24;46.52;100038.47;5033599;28;20095;-74
2021/05/20 08:21:43;;;;;;;24.45;5.00;;;;;;;18.66;48.09;100027.44;5033263;28;20091;-74
2021/05/20 08:24:09;;;;;;;29.63;5.63;;;;;;;19.37;45.94;100003.72;5033751;28;20025;-73
2021/05/20 08:26:35;;;;;;;20.10;4.53;;;;;;;19.06;46.88;100012.69;5033673;28;20117;-73
2021/05/20 08:29:01;;;;;;;26.85;6.00;;;;;;;19.53;45.64;100005.34;5033815;28;20064;-75
2021/05/20 08:31:28;;;;;;;26.67;6.60;;;;;;;19.36;46.13;99988.28;5033938;28;20048;-74
2021/05/20 08:33:55;;;;;;;19.98;4.38;;;;;;;18.91;47.10;99972.25;5032802;28;20488;-80
2021/05/20 08:36:20;;;;;;;25.80;5.25;;;;;;;18.34;48.73;99961.59;5033977;28;20112;-73
2021/05/20 08:38:46;;;;;;;28.58;5.60;;;;;;;18.95;47.56;99940.63;5033774;28;20530;-73
2021/05/20 08:41:16;;;;;;;30.17;7.60;;;;;;;19.31;46.84;99958.19;5033589;28;20033;-73
2021/05/20 08:43:42;;;;;;;24.00;6.00;;;;;;;19.28;46.94;99945.13;5033619;28;20083;-73
2021/05/20 08:46:07;;;;;;;21.17;5.53;;;;;;;19.07;47.42;99925.66;5033513;28;20430;-74
2021/05/20 08:48:33;;;;;;;21.23;5.65;;;;;;;19.49;46.60;99921.41;5033049;28;20033;-74
2021/05/20 08:51:01;;;;;;;27.13;5.32;;;;;;;19.03;47.66;99888.84;5033228;28;20082;-74
2021/05/20 08:53:26;;;;;;;25.10;5.68;;;;;;;19.12;47.27;99886.53;5033258;28;20484;-75
2021/05/20 08:55:52;;;;;;;20.33;5.82;;;;;;;19.24;47.04;99857.66;5023760;28;20079;-75
2021/05/20 08:58:22;;;;;;;25.83;5.38;;;;;;;19.31;47.19;99854.91;5026011;28;20395;-75
2021/05/20 09:00:47;;;;;;;23.13;6.57;;;;;;;19.28;47.06;99845.41;5020927;28;20029;-84
2021/05/20 09:03:14;;;;;;;21.55;5.32;;;;;;;18.54;49.23;99835.66;5022023;28;20080;-79
2021/05/20 09:05:41;;;;;;;23.95;6.07;;;;;;;18.85;48.27;99817.63;5021955;28;20053;-76
2021/05/20 09:08:13;;;;;;;24.90;5.55;;;;;;;18.74;48.59;99807.69;5021518;28;20432;-73
2021/05/20 09:10:41;;;;;;;20.92;5.10;;;;;;;18.88;48.73;99791.13;5022110;28;20377;-82
2021/05/20 09:13:09;;;;;;;27.90;6.78;;;;;;;19.38;47.35;99799.53;5022820;28;20083;-78
2021/05/20 09:15:40;;;;;;;27.25;5.63;;;;;;;18.92;48.61;99780.09;5012941;28;20096;-79
2021/05/20 09:18:27;;;;;;;24.08;5.75;;;;;;;18.05;50.70;99764.31;5013023;28;20061;-79
2021/05/20 09:20:56;;;;;;;23.05;5.65;;;;;;;19.17;48.35;99742.13;5012722;28;20384;-83
2021/05/20 09:23:24;;;;;;;28.67;6.32;;;;;;;19.54;47.24;99741.72;5014461;28;20029;-76
2021/05/20 09:25:52;;;;;;;23.42;6.30;;;;;;;19.03;49.33;99722.75;5023118;28;20024;-79
2021/05/20 09:28:31;;;;;;;25.25;5.75;;;;;;;18.93;49.23;99701.38;5023135;28;20483;-73
2021/05/20 09:30:57;;;;;;;28.75;6.95;;;;;;;19.36;47.82;99683.59;5022227;28;20027;-75
2021/05/20 09:33:22;;;;;;;25.88;4.93;;;;;;;18.99;49.32;99674.91;5022435;28;20033;-81
2021/05/20 09:35:49;;;;;;;34.88;6.63;;;;;;;19.20;48.83;99661.06;5020647;28;20014;-76
2021/05/20 09:38:24;;;;;;;24.58;6.15;;;;;;;18.88;49.63;99663.03;5023098;28;20033;-75
2021/05/20 09:40:55;;;;;;;29.73;5.90;;;;;;;18.85;49.51;99639.72;5020392;28;20033;-76
2021/05/20 09:43:22;;;;;;;29.98;6.45;;;;;;;19.39;48.56;99643.22;5022889;28;20021;-76
2021/05/20 09:45:52;;;;;;;27.25;6.03;;;;;;;19.46;48.33;99621.03;5022684;28;20018;-76
2021/05/20 09:48:20;;;;;;;28.33;7.70;;;;;;;19.46;47.98;99623.00;5027622;28;20026;-79
2021/05/20 09:50:51;;;;;;;34.13;8.52;;;;;;;19.99;46.73;99608.19;5026004;28;20631;-76
2021/05/20 09:53:19;;;;;;;25.85;6.40;;;;;;;19.85;47.27;99593.19;5021814;28;20067;-77
2021/05/20 09:55:54;;;;;;;40.00;7.40;;;;;;;20.00;47.12;99568.97;5021502;28;20025;-77
2021/05/20 09:58:22;;;;;;;30.55;6.85;;;;;;;19.66;48.18;99563.22;5023300;28;20029;-78
2021/05/20 10:00:49;;;;;;;27.17;7.40;;;;;;;19.18;49.26;99554.63;5021139;28;20022;-79
2021/05/20 10:03:16;;;;;;;32.60;7.07;;;;;;;19.66;48.39;99539.06;5021151;28;20365;-77
2021/05/20 10:05:57;;;;;;;18.95;5.72;;;;;;;20.17;47.28;99526.47;5022494;28;20029;-78
2021/05/20 10:08:26;;;;;;;27.08;6.28;;;;;;;20.27;46.95;99527.59;5031296;28;20029;-75
2021/05/20 10:10:56;;;;;;;30.33;5.65;;;;;;;20.11;47.23;99491.28;5023002;28;20030;-75
2021/05/20 10:13:22;;;;;;;17.08;3.63;;;;;;;19.93;47.98;99491.38;5022847;28;20026;-78
2021/05/20 10:15:49;;;;;;;25.05;6.07;;;;;;;20.75;46.05;99474.88;5020278;28;20026;-76
2021/05/20 10:18:17;;;;;;;21.15;5.05;;;;;;;20.06;47.84;99478.63;5022070;28;20479;-76
2021/05/20 10:20:45;;;;;;;31.30;5.95;;;;;;;19.97;48.36;99461.66;5021773;28;20075;-76
2021/05/20 10:23:18;;;;;;;24.17;5.82;;;;;;;20.45;47.22;99442.25;5026008;28;20357;-76
2021/05/20 10:25:46;;;;;;;30.98;6.57;;;;;;;20.67;46.44;99422.63;5030802;28;20021;-76
2021/05/20 10:28:14;;;;;;;20.00;5.22;;;;;;;20.78;45.89;99421.31;5031000;28;20029;-76
2021/05/20 10:30:42;;;;;;;25.00;7.72;;;;;;;20.87;46.12;99414.50;5031012;28;20022;-76
2021/05/20 10:33:08;;;;;;;25.85;5.93;;;;;;;20.72;46.22;99384.13;5030896;28;20072;-77
2021/05/20 10:35:48;;;;;;;27.35;7.22;;;;;;;20.62;46.77;99362.03;5031131;28;20028;-76
2021/05/20 10:38:25;;;;;;;36.13;8.27;;;;;;;21.01;46.10;99367.91;5029504;28;20586;-76
2021/05/20 10:41:09;;;;;;;30.73;7.65;;;;;;;21.10;45.98;99347.94;5033309;28;20063;-75
2021/05/20 10:43:36;;;;;;;21.17;5.65;;;;;;;20.94;46.73;99354.09;5033281;28;20029;-75
2021/05/20 10:46:13;;;;;;;29.02;6.90;;;;;;;21.05;46.47;99323.41;5034701;28;20426;-76
2021/05/20 10:48:51;;;;;;;32.30;7.95;;;;;;;21.57;44.87;99312.72;5032588;28;20503;-79
2021/05/20 10:51:19;;;;;;;24.05;6.30;;;;;;;21.43;45.33;99306.59;5033527;28;20101;-77
2021/05/20 10:54:00;;;;;;;35.28;6.65;;;;;;;21.43;45.40;99309.38;5032754;28;20368;-75
2021/05/20 10:56:26;;;;;;;27.10;6.60;;;;;;;21.84;44.28;99298.00;5033712;28;20075;-76
2021/05/20 10:58:52;;;;;;;27.42;7.72;;;;;;;21.45;45.14;99291.09;5034147;28;20026;-77
2021/05/20 11:01:20;;;;;;;24.20;5.65;;;;;;;21.42;45.17;99288.38;5034755;28;20044;-84
2021/05/20 11:03:49;;;;;;;34.50;7.28;;;;;;;21.42;45.38;99266.94;5034273;28;20072;-74
2021/05/20 11:06:17;;;;;;;27.67;7.40;;;;;;;21.72;44.61;99252.13;5033203;28;20045;-74
2021/05/20 11:08:42;;;;;;;22.92;6.80;;;;;;;21.67;44.70;99243.47;5033395;28;20029;-74
2021/05/20 11:11:39;;;;;;;30.65;9.52;;;;;;;21.74;44.63;99235.03;5033289;28;20033;-75
2021/05/20 11:14:14;;;;;;;38.33;9.60;;;;;;;21.25;45.72;99215.19;5031503;28;20141;-74
2021/05/20 11:16:44;;;;;;;35.85;10.40;;;;;;;20.91;46.69;99212.53;5030189;28;20068;-75
2021/05/20 11:19:19;;;;;;;34.40;8.60;;;;;;;21.29;45.51;99196.50;5026380;28;20041;-80
2021/05/20 11:21:58;;;;;;;30.27;7.55;;;;;;;21.37;45.69;99183.28;5032007;28;20108;-73
2021/05/20 11:24:27;;;;;;;39.90;8.20;;;;;;;21.56;44.87;99160.31;5032879;28;20486;-73
2021/05/20 11:26:54;;;;;;;30.02;7.88;;;;;;;21.97;43.97;99164.66;5032506;28;20013;-73